Time;durP1;ratioP1;P1;durP2;ratioP2;P2;SDS_P1;SDS_P2;PMS_P1;PMS_P2;Temp;Humidity;BMP_temperature;BMP_pressure;BME280_temperature;BME280_humidity;BME280_pressure;Samples;Min_cycle;Max_cycle;Signal;HPM_P1;HPM_P2
2022/09/08 00:01:39;;;;;;;9.68;2.03;;;19.00;99.90;;;;;;5025827;28;20029;-71
2022/09/08 00:04:05;;;;;;;7.25;1.90;;;18.90;99.90;;;;;;5024268;28;20039;-73
2022/09/08 00:06:32;;;;;;;5.00;1.58;;;18.90;99.90;;;;;;5025357;28;20052;-73
2022/09/08 00:08:59;;;;;;;7.18;1.42;;;19.00;99.90;;;;;;5024847;28;20034;-73
2022/09/08 00:11:31;;;;;;;6.03;1.40;;;18.90;99.90;;;;;;5025718;28;20091;-73
2022/09/08 00:14:05;;;;;;;6.03;1.45;;;18.90;99.90;;;;;;5024064;28;20041;-72
2022/09/08 00:16:30;;;;;;;8.25;1.27;;;18.90;99.90;;;;;;5025457;28;20124;-73
2022/09/08 00:18:56;;;;;;;4.70;1.35;;;18.90;99.90;;;;;;5024440;28;20160;-72
2022/09/08 00:21:24;;;;;;;5.45;1.30;;;18.90;99.90;;;;;;5025516;28;20034;-72
2022/09/08 00:23:50;;;;;;;5.85;1.38;;;18.90;99.90;;;;;;5024359;28;20046;-72
2022/09/08 00:26:18;;;;;;;4.75;1.67;;;18.90;99.90;;;;;;5025365;28;20132;-73
2022/09/08 00:28:43;;;;;;;8.23;1.95;;;18.90;99.90;;;;;;4996107;28;20633;-73
2022/09/08 00:31:09;;;;;;;7.65;1.50;;;18.90;99.90;;;;;;5023742;28;20057;-73
2022/09/08 00:33:35;;;;;;;5.15;1.48;;;18.90;99.90;;;;;;5024139;28;20037;-71
2022/09/08 00:36:03;;;;;;;4.72;1.50;;;18.90;99.90;;;;;;5023406;28;20034;-73
2022/09/08 00:38:30;;;;;;;6.97;1.30;;;18.90;99.90;;;;;;5024136;28;20112;-73
2022/09/08 00:40:56;;;;;;;8.15;1.33;;;18.90;99.90;;;;;;5023190;28;20076;-72
2022/09/08 00:43:40;;;;;;;2.35;1.02;;;18.90;99.90;;;;;;5024400;28;20037;-73
2022/09/08 00:46:08;;;;;;;6.70;1.50;;;18.90;99.90;;;;;;5022961;28;20045;-73
2022/09/08 00:48:40;;;;;;;5.93;1.85;;;18.90;99.90;;;;;;5024952;28;20037;-73
2022/09/08 00:51:06;;;;;;;6.35;1.17;;;18.80;99.90;;;;;;5023217;28;20120;-72
2022/09/08 00:53:37;;;;;;;5.78;1.83;;;18.80;99.90;;;;;;5023868;28;20077;-72
2022/09/08 00:56:05;;;;;;;6.88;1.70;;;18.90;99.90;;;;;;5024386;28;20511;-73
2022/09/08 00:58:33;;;;;;;4.13;1.17;;;18.90;99.90;;;;;;5024963;28;20063;-72
2022/09/08 01:01:00;;;;;;;5.55;1.38;;;18.90;99.90;;;;;;5022903;28;20056;-73
2022/09/08 01:03:26;;;;;;;6.47;1.45;;;18.90;99.90;;;;;;5024391;28;20516;-73
2022/09/08 01:06:05;;;;;;;4.13;1.17;;;18.90;99.90;;;;;;5024826;28;20029;-73
2022/09/08 01:14:50;;;;;;;3.90;1.30;;;19.00;99.90;;;;;;5022831;28;20133;-73
2022/09/08 01:17:22;;;;;;;8.70;1.67;;;19.00;99.90;;;;;;5021234;28;20091;-73
2022/09/08 01:19:49;;;;;;;4.22;1.20;;;19.10;99.90;;;;;;5025671;28;20044;-73
2022/09/08 01:22:43;;;;;;;12.68;2.35;;;19.00;99.90;;;;;;5032145;28;20046;-71
2022/09/08 01:25:48;;;;;;;9.68;2.10;;;18.70;99.90;;;;;;5027973;28;20033;-72
2022/09/08 01:28:29;;;;;;;11.20;2.33;;;18.50;99.90;;;;;;5021955;28;20041;-72
2022/09/08 01:30:55;;;;;;;7.15;1.20;;;18.20;99.90;;;;;;5024628;28;20040;-72
2022/09/08 01:33:21;;;;;;;3.97;1.48;;;18.10;99.90;;;;;;5024767;28;20038;-70
2022/09/08 01:35:48;;;;;;;4.93;1.40;;;17.90;99.90;;;;;;5024884;28;20126;-72
2022/09/08 01:38:14;;;;;;;5.60;1.33;;;17.80;99.90;;;;;;5035173;28;20060;-72
2022/09/08 01:40:39;;;;;;;5.72;1.70;;;17.70;99.90;;;;;;5035177;28;20498;-71
2022/09/08 01:43:07;;;;;;;7.25;1.58;;;17.60;99.90;;;;;;5037090;28;20480;-71
2022/09/08 01:45:34;;;;;;;9.45;1.85;;;17.60;99.90;;;;;;5033712;28;20106;-72
2022/09/08 01:48:00;;;;;;;9.65;2.38;;;17.50;99.90;;;;;;5022127;28;20030;-72
2022/09/08 01:50:25;;;;;;;5.78;1.58;;;17.40;99.90;;;;;;5024705;28;20033;-72
2022/09/08 01:52:51;;;;;;;9.70;1.67;;;17.40;99.90;;;;;;5028191;28;20083;-72
2022/09/08 01:55:17;;;;;;;6.03;1.40;;;17.40;99.90;;;;;;5030149;28;20037;-72
2022/09/08 01:57:43;;;;;;;9.52;2.38;;;17.40;99.90;;;;;;5029218;28;20021;-72
2022/09/08 02:00:09;;;;;;;7.35;1.75;;;17.50;99.90;;;;;;5029104;28;20025;-71
2022/09/08 02:02:35;;;;;;;8.80;1.70;;;17.50;99.90;;;;;;5028045;28;20033;-72
2022/09/08 02:05:01;;;;;;;6.75;1.33;;;17.50;99.90;;;;;;5028473;28;20083;-72
2022/09/08 02:07:26;;;;;;;6.88;1.45;;;17.50;99.90;;;;;;5029813;28;20282;-72
2022/09/08 02:09:53;;;;;;;10.95;3.00;;;17.60;99.90;;;;;;5028886;28;20049;-70
2022/09/08 02:12:19;;;;;;;9.63;2.50;;;17.50;99.90;;;;;;5026719;28;20037;-71
2022/09/08 02:14:44;;;;;;;6.43;1.80;;;17.60;99.90;;;;;;5028455;28;20037;-72
2022/09/08 02:17:11;;;;;;;6.35;2.03;;;17.60;99.90;;;;;;5027856;28;20490;-73
2022/09/08 02:19:37;;;;;;;7.93;2.00;;;17.50;99.90;;;;;;5027615;28;20030;-72
2022/09/08 02:22:03;;;;;;;5.13;1.67;;;17.60;99.90;;;;;;5028854;28;20084;-71
2022/09/08 02:24:29;;;;;;;12.77;2.13;;;17.60;99.90;;;;;;5028706;28;20117;-72
2022/09/08 02:26:55;;;;;;;9.10;2.35;;;17.60;99.90;;;;;;5028719;28;20489;-72
2022/09/08 02:29:21;;;;;;;6.65;1.90;;;17.60;99.90;;;;;;5028476;28;20045;-72
2022/09/08 02:31:47;;;;;;;9.43;1.83;;;17.60;99.90;;;;;;5028554;28;20037;-72
2022/09/08 02:34:12;;;;;;;6.55;1.92;;;17.60;99.90;;;;;;5027644;28;20052;-73
2022/09/08 02:36:38;;;;;;;10.77;2.38;;;17.60;99.90;;;;;;5028650;28;20156;-72
2022/09/08 02:39:04;;;;;;;9.60;2.40;;;17.60;99.90;;;;;;5024235;28;20086;-71
2022/09/08 02:41:30;;;;;;;6.82;1.98;;;17.60;99.90;;;;;;5027945;28;20517;-72
2022/09/08 02:43:56;;;;;;;9.95;2.80;;;17.60;99.90;;;;;;5027363;28;20037;-73
2022/09/08 02:46:22;;;;;;;9.38;2.67;;;17.60;99.90;;;;;;5023331;28;20489;-72
2022/09/08 02:48:48;;;;;;;7.30;2.30;;;17.60;99.90;;;;;;5020263;28;20061;-72
2022/09/08 02:51:17;;;;;;;6.78;2.03;;;17.70;99.90;;;;;;5034359;28;20033;-72
2022/09/08 02:53:43;;;;;;;10.43;2.15;;;17.60;99.90;;;;;;5033141;28;20502;-72
2022/09/08 02:56:10;;;;;;;8.80;2.33;;;17.70;99.90;;;;;;5027288;28;20026;-73
2022/09/08 02:58:37;;;;;;;11.48;2.45;;;17.70;99.90;;;;;;5024164;28;20037;-73
2022/09/08 03:01:04;;;;;;;14.15;2.75;;;17.70;99.90;;;;;;5027468;28;20345;-72
2022/09/08 03:03:29;;;;;;;5.03;2.22;;;17.60;99.90;;;;;;5027020;28;20176;-73
2022/09/08 03:05:55;;;;;;;6.80;2.80;;;17.60;99.90;;;;;;5026287;28;20101;-72
2022/09/08 03:08:21;;;;;;;12.93;2.50;;;17.70;99.90;;;;;;5026645;28;20033;-73
2022/09/08 03:10:51;;;;;;;10.13;2.08;;;17.60;99.90;;;;;;5026543;28;20449;-73
2022/09/08 03:13:17;;;;;;;6.47;1.98;;;17.60;99.90;;;;;;5026186;28;20498;-72
2022/09/08 03:15:44;;;;;;;4.88;1.98;;;17.70;99.90;;;;;;5026901;28;20524;-73
2022/09/08 03:18:10;;;;;;;8.93;2.20;;;17.70;99.90;;;;;;5026695;28;20033;-71
2022/09/08 03:20:37;;;;;;;12.23;3.10;;;17.60;99.90;;;;;;5027447;28;20068;-75
2022/09/08 03:23:04;;;;;;;9.13;2.60;;;17.70;99.90;;;;;;5020776;28;20045;-73
2022/09/08 03:25:35;;;;;;;7.88;2.65;;;17.70;99.90;;;;;;5027729;28;20052;-72
2022/09/08 03:28:01;;;;;;;13.75;3.55;;;17.60;99.90;;;;;;5035165;28;20060;-73
2022/09/08 03:30:27;;;;;;;11.13;2.65;;;17.70;99.90;;;;;;5039663;28;20033;-72
2022/09/08 03:32:52;;;;;;;8.23;2.13;;;17.70;99.90;;;;;;5037746;28;20049;-73
2022/09/08 03:35:18;;;;;;;10.93;2.25;;;17.60;99.90;;;;;;5029432;28;20030;-73
2022/09/08 03:37:44;;;;;;;6.30;2.30;;;17.70;99.90;;;;;;5026846;28;20029;-70
2022/09/08 03:40:13;;;;;;;7.85;3.05;;;17.60;99.90;;;;;;5026487;28;20087;-72
2022/09/08 03:42:40;;;;;;;6.40;2.35;;;17.60;99.90;;;;;;5025381;28;20390;-72
2022/09/08 03:45:12;;;;;;;6.55;2.05;;;17.60;99.90;;;;;;5026399;28;20047;-73
2022/09/08 03:47:38;;;;;;;6.10;2.80;;;17.60;99.90;;;;;;5024259;28;20061;-72
2022/09/08 03:50:05;;;;;;;8.88;2.65;;;17.60;99.90;;;;;;5026294;28;20516;-72
2022/09/08 03:52:31;;;;;;;9.70;2.70;;;17.60;99.90;;;;;;5021515;28;20035;-73
2022/09/08 03:54:57;;;;;;;4.82;1.98;;;17.60;99.90;;;;;;5026287;28;20036;-72
2022/09/08 03:57:25;;;;;;;5.75;1.80;;;17.60;99.90;;;;;;5026193;28;20553;-71
2022/09/08 03:59:53;;;;;;;8.07;2.00;;;17.50;99.90;;;;;;5026096;28;20041;-73
2022/09/08 04:02:20;;;;;;;7.43;2.05;;;17.50;99.90;;;;;;5025234;28;20042;-70
2022/09/08 04:04:52;;;;;;;10.68;1.52;;;17.50;99.90;;;;;;5025449;28;20069;-73
2022/09/08 04:07:20;;;;;;;13.23;2.47;;;17.50;99.90;;;;;;5025927;28;20805;-73
2022/09/08 04:09:46;;;;;;;4.05;1.70;;;17.50;99.90;;;;;;5025353;28;20061;-72
2022/09/08 04:12:13;;;;;;;7.05;1.90;;;17.40;99.90;;;;;;5025601;28;20033;-73
2022/09/08 04:14:39;;;;;;;11.05;2.35;;;17.40;99.90;;;;;;5026278;28;20183;-72
2022/09/08 04:17:05;;;;;;;8.98;2.00;;;17.40;99.90;;;;;;5032046;28;20072;-72
2022/09/08 04:19:31;;;;;;;7.13;1.92;;;17.30;99.90;;;;;;5031318;28;20041;-72
2022/09/08 04:21:57;;;;;;;6.32;2.17;;;17.20;99.90;;;;;;5027114;28;20049;-71
2022/09/08 04:24:22;;;;;;;8.23;1.77;;;17.20;99.90;;;;;;5025448;28;20049;-71
2022/09/08 04:26:48;;;;;;;11.25;1.90;;;17.10;99.90;;;;;;5025044;28;20037;-72
2022/09/08 04:29:15;;;;;;;7.20;1.90;;;17.10;99.90;;;;;;5024972;28;20037;-72
2022/09/08 04:31:41;;;;;;;3.78;1.40;;;17.10;99.90;;;;;;5024531;28;20040;-72
2022/09/08 04:34:07;;;;;;;10.25;2.00;;;17.00;99.90;;;;;;5024677;28;20025;-71
2022/09/08 04:36:33;;;;;;;8.00;2.13;;;17.00;99.90;;;;;;5025354;28;20056;-72
2022/09/08 04:38:59;;;;;;;6.40;2.33;;;17.00;99.90;;;;;;5024496;28;20038;-71
2022/09/08 04:41:27;;;;;;;5.75;1.63;;;17.00;99.90;;;;;;5025238;28;20087;-72
2022/09/08 04:43:54;;;;;;;6.63;1.83;;;16.90;99.90;;;;;;5022536;28;20040;-72
2022/09/08 04:46:21;;;;;;;6.95;1.80;;;16.90;99.90;;;;;;5023004;28;20703;-72
2022/09/08 04:48:46;;;;;;;5.40;2.13;;;16.90;99.90;;;;;;5024167;28;20041;-72
2022/09/08 04:51:15;;;;;;;7.47;2.00;;;16.90;99.90;;;;;;5025273;28;20033;-71
2022/09/08 04:53:42;;;;;;;12.65;3.35;;;16.90;99.90;;;;;;5022146;28;20025;-71
2022/09/08 04:56:09;;;;;;;6.95;2.15;;;16.80;99.90;;;;;;5024177;28;20088;-72
2022/09/08 04:58:37;;;;;;;7.82;2.70;;;16.80;99.90;;;;;;5024890;28;20040;-72
2022/09/08 05:01:13;;;;;;;7.60;2.38;;;16.80;99.90;;;;;;5024828;28;20041;-72
2022/09/08 05:03:40;;;;;;;7.32;1.80;;;16.80;99.90;;;;;;5024388;28;20100;-71
2022/09/08 05:06:07;;;;;;;11.18;2.03;;;16.80;99.90;;;;;;5024642;28;20037;-72
2022/09/08 05:08:33;;;;;;;7.50;2.20;;;16.80;99.90;;;;;;5022323;28;20068;-69
2022/09/08 05:10:59;;;;;;;4.72;1.92;;;16.80;99.90;;;;;;5011182;28;20105;-72
2022/09/08 05:13:25;;;;;;;7.18;2.03;;;16.80;99.90;;;;;;5015146;28;20501;-73
2022/09/08 05:15:50;;;;;;;9.20;1.95;;;16.80;99.90;;;;;;5028247;28;20044;-73
2022/09/08 05:18:16;;;;;;;8.50;2.42;;;16.80;99.90;;;;;;5033811;28;20052;-73
2022/09/08 05:20:42;;;;;;;9.50;2.50;;;16.80;99.90;;;;;;5034880;28;20572;-74
2022/09/08 05:23:07;;;;;;;7.90;1.98;;;16.80;99.90;;;;;;5021769;28;20037;-73
2022/09/08 05:25:33;;;;;;;4.55;2.10;;;16.80;99.90;;;;;;5019024;28;20066;-72
2022/09/08 05:27:58;;;;;;;9.00;2.20;;;16.80;99.90;;;;;;5017375;28;20087;-71
2022/09/08 05:30:24;;;;;;;7.57;2.65;;;16.80;99.90;;;;;;5021977;28;20049;-72
2022/09/08 05:32:49;;;;;;;4.50;2.53;;;16.70;99.90;;;;;;5019281;28;20033;-72
2022/09/08 05:35:15;;;;;;;9.45;2.17;;;16.80;99.90;;;;;;5022208;28;20052;-72
2022/09/08 05:37:41;;;;;;;8.35;2.90;;;16.70;99.90;;;;;;5017826;28;20830;-72
2022/09/08 05:40:07;;;;;;;7.15;2.72;;;16.70;99.90;;;;;;5019042;28;20124;-72
2022/09/08 05:42:32;;;;;;;12.80;2.80;;;16.70;99.90;;;;;;5025382;28;20076;-72
2022/09/08 05:44:58;;;;;;;6.72;2.50;;;16.70;99.90;;;;;;5029805;28;20053;-71
2022/09/08 05:47:24;;;;;;;7.65;2.17;;;16.70;99.90;;;;;;5024408;28;20037;-72
2022/09/08 05:49:50;;;;;;;7.35;2.35;;;16.70;99.90;;;;;;5018637;28;20045;-71
2022/09/08 05:52:15;;;;;;;5.65;2.65;;;16.70;99.90;;;;;;5020486;28;20037;-72
2022/09/08 05:54:41;;;;;;;10.10;2.80;;;16.70;99.90;;;;;;5017019;28;20061;-71
2022/09/08 05:57:06;;;;;;;9.93;2.80;;;16.70;99.90;;;;;;5021074;28;20071;-72
2022/09/08 05:59:32;;;;;;;10.80;2.83;;;16.70;99.90;;;;;;5020296;28;20102;-71
2022/09/08 06:01:58;;;;;;;4.63;2.42;;;16.70;99.90;;;;;;5016441;28;20220;-71
2022/09/08 06:04:23;;;;;;;6.38;2.17;;;16.70;99.90;;;;;;5017134;28;20171;-72
2022/09/08 06:06:49;;;;;;;5.03;2.45;;;16.70;99.90;;;;;;5022109;28;20034;-72
2022/09/08 06:09:14;;;;;;;4.45;2.53;;;16.70;99.90;;;;;;5017516;28;20542;-71
2022/09/08 06:11:41;;;;;;;7.88;1.92;;;16.70;99.90;;;;;;5019209;28;20036;-70
2022/09/08 06:14:08;;;;;;;9.65;3.22;;;16.70;99.90;;;;;;5017724;28;20034;-72
2022/09/08 06:16:34;;;;;;;6.13;2.42;;;16.70;99.90;;;;;;5019097;28;20049;-70
2022/09/08 06:19:00;;;;;;;8.48;2.85;;;16.70;99.90;;;;;;5017770;28;20045;-70
2022/09/08 06:21:29;;;;;;;5.03;2.00;;;16.70;99.90;;;;;;5018874;28;20045;-70
2022/09/08 06:23:58;;;;;;;11.88;2.83;;;16.70;99.90;;;;;;5017101;28;20498;-71
2022/09/08 06:27:01;;;;;;;10.38;3.13;;;16.70;99.90;;;;;;5015037;28;20128;-72
2022/09/08 06:29:27;;;;;;;8.27;2.42;;;16.70;99.90;;;;;;5012376;28;20077;-71
2022/09/08 06:32:13;;;;;;;6.03;2.95;;;16.70;99.90;;;;;;5018998;28;20034;-71
2022/09/08 06:34:46;;;;;;;7.82;3.22;;;16.80;99.90;;;;;;5018797;28;20076;-69
2022/09/08 06:38:00;;;;;;;9.05;3.13;;;16.70;99.90;;;;;;5019371;28;20811;-72
2022/09/08 06:40:34;;;;;;;7.10;2.40;;;16.70;99.90;;;;;;5009799;28;20045;-71
2022/09/08 06:43:20;;;;;;;9.48;3.53;;;16.80;99.90;;;;;;5018313;28;20034;-72
2022/09/08 06:45:50;;;;;;;6.60;3.20;;;16.70;99.90;;;;;;5014118;28;20244;-71
2022/09/08 06:48:32;;;;;;;;;;;16.80;99.90;;;;;;5022143;28;20125;-70
2022/09/08 06:51:32;;;;;;;10.82;3.63;;;16.80;99.90;;;;;;5017237;28;19959;-71
2022/09/08 06:54:17;;;;;;;10.30;3.58;;;16.80;99.90;;;;;;5017851;28;20829;-71
2022/09/08 06:56:55;;;;;;;6.43;3.85;;;16.80;99.90;;;;;;5017651;28;20029;-71
2022/09/08 06:59:45;;;;;;;7.38;3.92;;;16.80;99.90;;;;;;5017192;28;20030;-70
2022/09/08 07:02:38;;;;;;;8.00;3.83;;;16.70;99.90;;;;;;5020221;28;20569;-72
2022/09/08 07:05:13;;;;;;;12.57;4.57;;;16.80;99.90;;;;;;5020730;28;20120;-71
2022/09/08 07:07:56;;;;;;;10.05;4.40;;;16.80;99.90;;;;;;5029174;28;20040;-72
2022/09/08 07:10:39;;;;;;;11.07;4.18;;;16.80;99.90;;;;;;5038073;28;20029;-72
2022/09/08 07:13:27;;;;;;;9.60;3.60;;;16.80;99.90;;;;;;5038628;28;20033;-71
2022/09/08 07:16:29;;;;;;;12.25;3.97;;;16.80;99.90;;;;;;5025704;28;20084;-70
2022/09/08 07:19:25;;;;;;;9.75;3.47;;;16.80;99.90;;;;;;5015710;28;20050;-73
2022/09/08 07:22:15;;;;;;;8.27;2.80;;;16.80;99.90;;;;;;5019490;28;20295;-71
2022/09/08 07:24:42;;;;;;;11.27;4.40;;;16.80;99.90;;;;;;5016665;28;20056;-72
2022/09/08 07:27:12;;;;;;;7.90;3.13;;;16.80;99.90;;;;;;5020570;28;20095;-72
2022/09/08 07:29:52;;;;;;;12.65;3.78;;;16.80;99.90;;;;;;5017753;28;20739;-71
2022/09/08 07:32:23;;;;;;;10.07;2.97;;;16.80;99.90;;;;;;5016576;28;20141;-72
2022/09/08 07:35:24;;;;;;;8.43;3.03;;;16.80;99.90;;;;;;5020471;28;20532;-72
2022/09/08 07:37:51;;;;;;;;;;;16.80;99.90;;;;;;4982812;28;20624;-72
2022/09/08 07:40:25;;;;;;;7.65;3.15;;;16.80;99.90;;;;;;5018758;28;19921;-71
2022/09/08 07:42:55;;;;;;;5.55;2.70;;;16.90;99.90;;;;;;5014838;28;20044;-72
2022/09/08 07:45:30;;;;;;;9.32;2.83;;;16.90;99.90;;;;;;5018815;28;20121;-73
2022/09/08 07:48:26;;;;;;;7.35;2.92;;;16.90;99.90;;;;;;5016063;28;20064;-72
2022/09/08 07:51:14;;;;;;;7.78;3.03;;;17.00;99.90;;;;;;5015276;28;20115;-72
2022/09/08 07:53:46;;;;;;;8.63;3.42;;;17.00;99.90;;;;;;5015421;28;20076;-70
2022/09/08 07:56:23;;;;;;;8.57;4.35;;;17.00;99.90;;;;;;5017342;28;20045;-74
2022/09/08 07:59:13;;;;;;;9.38;3.83;;;17.10;99.90;;;;;;5018977;28;20083;-72
2022/09/08 08:02:16;;;;;;;10.10;4.63;;;17.10;99.90;;;;;;5018014;28;20037;-72
2022/09/08 08:05:00;;;;;;;11.55;4.38;;;17.10;99.90;;;;;;5017186;28;20733;-72
2022/09/08 08:07:36;;;;;;;12.38;4.75;;;17.10;99.90;;;;;;5016792;28;20120;-71
2022/09/08 08:10:09;;;;;;;7.63;4.18;;;17.20;99.90;;;;;;5018242;28;20044;-71
2022/09/08 08:12:45;;;;;;;10.25;3.80;;;17.30;99.90;;;;;;5019175;28;20037;-72
2022/09/08 08:15:11;;;;;;;8.00;4.00;;;17.30;99.90;;;;;;5018319;28;20151;-71
2022/09/08 08:17:51;;;;;;;9.82;5.53;;;17.30;99.90;;;;;;5014002;28;20116;-72
2022/09/08 08:20:42;;;;;;;11.43;4.68;;;17.40;99.90;;;;;;5016874;28;20389;-70
2022/09/08 08:23:29;;;;;;;11.68;5.28;;;17.50;99.90;;;;;;5014328;28;20760;-72
2022/09/08 08:26:05;;;;;;;13.48;5.45;;;17.60;99.90;;;;;;5015536;28;20041;-70
2022/09/08 08:28:41;;;;;;;17.48;7.07;;;17.70;99.90;;;;;;5014571;28;20060;-72
2022/09/08 08:31:42;;;;;;;11.60;6.40;;;17.90;99.90;;;;;;5011551;28;20445;-72
2022/09/08 08:34:29;;;;;;;11.15;6.22;;;17.90;99.90;;;;;;5014161;28;20041;-72
2022/09/08 08:37:03;;;;;;;14.48;6.75;;;17.90;99.90;;;;;;5017008;28;20026;-69
2022/09/08 08:39:32;;;;;;;12.77;6.18;;;17.90;99.90;;;;;;5017941;28;20045;-72
2022/09/08 08:42:01;;;;;;;12.07;5.57;;;17.90;99.90;;;;;;5023253;28;20106;-71
2022/09/08 08:44:40;;;;;;;11.73;5.50;;;18.00;99.90;;;;;;5022190;28;20049;-71
2022/09/08 08:47:21;;;;;;;7.85;4.50;;;18.10;99.90;;;;;;5020697;28;20037;-71
2022/09/08 08:50:02;;;;;;;6.15;3.33;;;18.20;99.90;;;;;;5017579;28;20044;-70
2022/09/08 08:52:38;;;;;;;5.55;2.60;;;18.20;99.90;;;;;;5011470;28;20037;-73
2022/09/08 08:55:37;;;;;;;8.13;2.70;;;18.20;99.90;;;;;;5012829;28;20551;-73
2022/09/08 08:58:34;;;;;;;6.25;2.67;;;18.20;99.90;;;;;;5017974;28;20034;-73
2022/09/08 09:01:25;;;;;;;4.65;2.63;;;18.20;99.90;;;;;;5015638;28;20071;-73
2022/09/08 09:04:00;;;;;;;5.55;3.20;;;18.20;99.90;;;;;;5025785;28;20048;-72
2022/09/08 09:06:40;;;;;;;6.15;3.60;;;18.10;99.90;;;;;;5022598;28;20054;-72
2022/09/08 09:09:25;;;;;;;9.65;3.50;;;18.10;99.90;;;;;;5021848;28;20063;-72
2022/09/08 09:12:28;;;;;;;11.32;4.18;;;18.30;99.90;;;;;;5015511;28;20112;-72
2022/09/08 09:15:04;;;;;;;6.00;3.45;;;18.40;99.90;;;;;;5016535;28;20030;-72
2022/09/08 09:18:10;;;;;;;8.77;4.40;;;18.50;99.90;;;;;;5017709;28;20409;-72
2022/09/08 09:20:59;;;;;;;7.43;4.82;;;18.70;99.90;;;;;;5010898;28;20061;-72
2022/09/08 09:23:46;;;;;;;8.05;5.10;;;19.00;99.90;;;;;;5008400;28;20037;-70
2022/09/08 09:26:16;;;;;;;7.97;4.30;;;19.20;99.90;;;;;;5013994;28;20441;-72
2022/09/08 09:29:09;;;;;;;7.18;5.07;;;19.50;99.90;;;;;;5016833;28;20111;-72
2022/09/08 09:31:50;;;;;;;8.38;4.55;;;19.50;99.90;;;;;;5012963;28;20041;-73
2022/09/08 09:34:54;;;;;;;9.90;5.00;;;19.40;99.90;;;;;;5014419;28;20045;-73
2022/09/08 09:37:31;;;;;;;6.35;4.38;;;19.50;99.90;;;;;;4992167;28;20445;-73
2022/09/08 09:40:12;;;;;;;9.70;4.13;;;19.40;99.90;;;;;;5015205;28;20159;-73
2022/09/08 09:42:47;;;;;;;;;;;19.20;99.90;;;;;;5012860;28;20049;-72
2022/09/08 09:45:28;;;;;;;4.40;2.45;;;19.00;99.90;;;;;;5013909;28;19925;-74
2022/09/08 09:48:10;;;;;;;4.45;1.90;;;18.80;99.90;;;;;;5011241;28;20029;-73
2022/09/08 09:51:13;;;;;;;5.03;2.10;;;18.60;99.90;;;;;;5015097;28;20445;-73
2022/09/08 09:53:58;;;;;;;5.97;2.33;;;18.50;99.90;;;;;;5014533;28;20578;-72
2022/09/08 09:56:42;;;;;;;8.35;2.45;;;18.20;99.90;;;;;;5016721;28;20129;-73
2022/09/08 09:59:42;;;;;;;5.22;2.83;;;18.20;99.90;;;;;;5013223;28;20026;-73
2022/09/08 10:02:30;;;;;;;8.65;3.08;;;18.50;99.90;;;;;;5016030;28;20037;-73
2022/09/08 10:05:14;;;;;;;4.40;2.03;;;18.80;99.90;;;;;;5015565;28;20041;-72
2022/09/08 10:07:52;;;;;;;4.63;1.40;;;19.20;99.90;;;;;;5018013;28;20037;-74
2022/09/08 10:10:39;;;;;;;3.60;1.52;;;19.40;99.90;;;;;;5020506;28;20037;-74
2022/09/08 10:13:42;;;;;;;7.15;2.63;;;19.30;99.90;;;;;;5018750;28;20068;-73
2022/09/08 10:16:18;;;;;;;5.13;2.20;;;19.20;99.90;;;;;;4997928;28;20447;-73
2022/09/08 10:19:08;;;;;;;4.07;1.58;;;19.00;99.90;;;;;;5013394;28;21476;-72
2022/09/08 10:22:09;;;;;;;6.97;2.42;;;18.90;99.90;;;;;;5013718;28;20041;-72
2022/09/08 10:24:53;;;;;;;6.57;2.35;;;19.00;99.90;;;;;;5015025;28;20116;-73
2022/09/08 10:27:48;;;;;;;3.58;1.52;;;19.20;99.90;;;;;;5019183;28;20030;-73
2022/09/08 10:30:44;;;;;;;7.38;1.65;;;19.40;99.90;;;;;;5013216;28;20044;-72
2022/09/08 10:33:28;;;;;;;4.35;1.60;;;19.50;99.90;;;;;;5013576;28;20091;-73
2022/09/08 10:36:14;;;;;;;5.28;1.95;;;19.70;99.90;;;;;;5018434;28;20036;-73
2022/09/08 10:38:59;;;;;;;5.60;1.10;;;19.80;99.90;;;;;;5017271;28;20512;-73
2022/09/08 10:41:48;;;;;;;8.13;2.15;;;19.90;99.90;;;;;;5014439;28;20041;-71
2022/09/08 10:45:07;;;;;;;3.42;1.40;;;20.00;99.90;;;;;;5008139;28;20074;-73
2022/09/08 10:48:05;;;;;;;3.03;1.40;;;20.10;99.90;;;;;;5016609;28;20041;-72
2022/09/08 10:50:32;;;;;;;5.13;1.10;;;20.30;99.90;;;;;;4993156;28;20073;-72
2022/09/08 10:53:16;;;;;;;2.15;0.93;;;20.40;99.90;;;;;;5017935;28;20029;-73
2022/09/08 10:55:56;;;;;;;2.63;0.68;;;20.30;99.90;;;;;;5015382;28;20989;-73
2022/09/08 10:58:40;;;;;;;3.08;0.90;;;20.30;99.90;;;;;;5014745;28;20052;-71
2022/09/08 11:01:38;;;;;;;2.72;0.70;;;20.30;99.90;;;;;;5018450;28;20140;-73
2022/09/08 11:04:26;;;;;;;8.05;1.23;;;20.30;99.90;;;;;;5019270;28;20552;-71
2022/09/08 11:07:20;;;;;;;9.88;1.20;;;20.20;99.90;;;;;;5017482;28;20513;-73
2022/09/08 11:10:21;;;;;;;3.75;1.38;;;20.30;99.90;;;;;;5018594;28;20049;-73
2022/09/08 11:13:19;;;;;;;3.45;1.13;;;20.50;99.90;;;;;;5015878;28;20094;-73
2022/09/08 11:16:22;;;;;;;4.28;1.58;;;20.70;99.90;;;;;;5013829;28;20442;-73
2022/09/08 11:19:09;;;;;;;5.47;1.20;;;20.90;99.90;;;;;;5014946;28;20037;-74
2022/09/08 11:22:05;;;;;;;4.13;1.38;;;21.00;99.90;;;;;;5019132;28;20072;-74
2022/09/08 11:24:57;;;;;;;8.07;1.70;;;21.00;99.90;;;;;;5014635;28;20037;-74
2022/09/08 11:27:40;;;;;;;7.80;1.33;;;21.10;99.90;;;;;;5015743;28;20037;-74
2022/09/08 11:30:30;;;;;;;7.55;1.40;;;21.00;99.90;;;;;;5014903;28;20044;-72
2022/09/08 11:33:29;;;;;;;4.25;1.20;;;21.20;99.90;;;;;;5013492;28;20088;-72
2022/09/08 11:36:12;;;;;;;9.10;2.10;;;21.40;99.90;;;;;;5019299;28;20079;-73
2022/09/08 11:39:06;;;;;;;5.82;1.20;;;21.30;99.90;;;;;;5015792;28;20042;-73
2022/09/08 11:41:54;;;;;;;4.43;1.00;;;21.40;99.90;;;;;;5018926;28;20057;-75
2022/09/08 11:44:39;;;;;;;3.50;1.38;;;21.50;99.90;;;;;;5013092;28;20087;-73
2022/09/08 11:47:19;;;;;;;3.55;1.33;;;21.60;99.90;;;;;;5014402;28;20042;-73
2022/09/08 11:49:45;;;;;;;6.25;1.50;;;21.60;99.90;;;;;;5016953;28;20037;-73
2022/09/08 11:52:32;;;;;;;4.63;1.63;;;21.60;99.90;;;;;;5017602;28;20367;-73
2022/09/08 11:55:19;;;;;;;3.55;1.85;;;21.60;99.90;;;;;;5018341;28;20049;-74
2022/09/08 11:57:47;;;;;;;3.80;0.95;;;21.70;99.90;;;;;;5014554;28;20561;-74
2022/09/08 12:00:19;;;;;;;7.35;1.40;;;21.80;99.90;;;;;;5018252;28;20076;-74
2022/09/08 12:03:08;;;;;;;5.68;1.30;;;21.80;99.90;;;;;;5016854;28;20705;-74
2022/09/08 12:05:52;;;;;;;6.30;0.90;;;21.60;99.90;;;;;;5013358;28;20075;-74
2022/09/08 12:08:50;;;;;;;7.95;1.50;;;21.60;99.90;;;;;;5014743;28;20041;-73
2022/09/08 12:11:50;;;;;;;2.38;0.75;;;21.60;99.90;;;;;;5015077;28;20863;-74
2022/09/08 12:14:33;;;;;;;3.75;0.73;;;21.60;99.90;;;;;;5015807;28;20033;-74
2022/09/08 12:17:33;;;;;;;2.20;0.60;;;21.50;99.90;;;;;;5018721;28;20049;-73
2022/09/08 12:20:24;;;;;;;4.55;0.63;;;21.60;99.90;;;;;;5016649;28;21642;-75
2022/09/08 12:22:49;;;;;;;;;;;21.50;99.90;;;;;;5015066;28;20037;-74
2022/09/08 12:25:53;;;;;;;4.38;0.90;;;21.50;99.90;;;;;;5017010;28;19995;-73
2022/09/08 12:28:29;;;;;;;1.75;0.55;;;21.50;99.90;;;;;;5015479;28;20046;-72
2022/09/08 12:31:06;;;;;;;5.93;0.88;;;21.50;99.90;;;;;;5017230;28;20047;-73
2022/09/08 12:33:46;;;;;;;3.03;0.50;;;21.40;99.90;;;;;;5017168;28;20079;-74
2022/09/08 12:36:37;;;;;;;2.35;0.65;;;21.30;99.90;;;;;;5015309;28;20057;-73
2022/09/08 12:39:19;;;;;;;7.05;0.88;;;21.30;99.90;;;;;;5014625;28;20030;-74
2022/09/08 12:41:55;;;;;;;4.53;0.70;;;21.30;99.90;;;;;;5015735;28;20565;-72
2022/09/08 12:44:39;;;;;;;3.10;0.60;;;21.40;99.90;;;;;;5012714;28;20406;-74
2022/09/08 12:47:39;;;;;;;5.05;0.98;;;21.40;99.90;;;;;;5010956;28;20600;-74
2022/09/08 12:50:44;;;;;;;3.78;0.65;;;21.40;99.90;;;;;;5009010;28;20145;-73
2022/09/08 12:53:31;;;;;;;2.03;0.60;;;21.40;99.90;;;;;;4999527;28;20446;-74
2022/09/08 12:56:05;;;;;;;2.15;0.40;;;21.40;99.90;;;;;;5015266;28;20430;-74
2022/09/08 12:58:51;;;;;;;2.58;0.70;;;21.50;99.90;;;;;;5013455;28;20046;-75
2022/09/08 13:01:46;;;;;;;6.47;1.15;;;21.50;99.90;;;;;;5014327;28;20041;-74
2022/09/08 13:04:52;;;;;;;4.43;0.98;;;21.50;99.90;;;;;;5009098;28;20045;-74
2022/09/08 13:07:53;;;;;;;4.57;0.38;;;21.50;99.90;;;;;;5016647;28;20037;-74
2022/09/08 13:10:40;;;;;;;4.75;0.43;;;21.60;99.90;;;;;;5015660;28;20022;-74
2022/09/08 13:13:43;;;;;;;2.28;0.60;;;21.60;99.80;;;;;;5016710;28;20465;-75
2022/09/08 13:16:18;;;;;;;5.18;0.80;;;21.60;99.90;;;;;;5014083;28;20041;-72
2022/09/08 13:18:46;;;;;;;3.22;0.63;;;21.60;99.90;;;;;;5012581;28;20035;-73
2022/09/08 13:21:40;;;;;;;5.88;0.85;;;21.60;99.90;;;;;;5013428;28;20037;-74
2022/09/08 13:24:25;;;;;;;6.40;0.85;;;21.60;99.90;;;;;;5013061;28;20038;-75
2022/09/08 13:27:02;;;;;;;4.35;0.60;;;21.60;99.90;;;;;;5017322;28;20064;-72
2022/09/08 13:30:07;;;;;;;5.03;0.80;;;21.60;99.90;;;;;;5013796;28;20091;-74
2022/09/08 13:32:38;;;;;;;2.92;0.88;;;21.60;99.90;;;;;;4992966;28;20049;-72
2022/09/08 13:35:37;;;;;;;5.00;1.23;;;21.70;99.90;;;;;;4995752;28;20046;-74
2022/09/08 13:38:40;;;;;;;4.60;0.80;;;21.70;99.90;;;;;;5009106;28;20041;-74
2022/09/08 13:41:22;;;;;;;7.22;0.77;;;21.80;99.80;;;;;;5018722;28;20128;-74